Time;durP1;ratioP1;P1;durP2;ratioP2;P2;SDS_P1;SDS_P2;PMS_P1;PMS_P2;Temp;Humidity;BMP_temperature;BMP_pressure;BME280_temperature;BME280_humidity;BME280_pressure;Samples;Min_cycle;Max_cycle;Signal;HPM_P1;HPM_P2
2021/07/13 00:02:03;;;;;;;8.48;4.82;;;19.40;99.90;;;;;;5030465;28;20102;-64
2021/07/13 00:04:28;;;;;;;8.68;5.03;;;19.40;99.90;;;;;;5030657;28;20026;-64
2021/07/13 00:06:54;;;;;;;6.53;5.07;;;19.30;99.90;;;;;;5030718;28;20030;-64
2021/07/13 00:09:20;;;;;;;8.10;5.00;;;19.30;99.90;;;;;;5012594;28;20164;-65
2021/07/13 00:11:47;;;;;;;13.82;5.82;;;19.30;99.90;;;;;;5048381;28;20501;-65
2021/07/13 00:14:13;;;;;;;8.20;4.28;;;19.30;99.90;;;;;;5049824;28;20025;-65
2021/07/13 00:16:39;;;;;;;9.85;5.45;;;19.30;99.90;;;;;;5046062;28;20112;-64
2021/07/13 00:19:04;;;;;;;9.50;5.45;;;19.30;99.90;;;;;;5030362;28;20157;-65
2021/07/13 00:21:30;;;;;;;9.60;5.57;;;19.20;99.90;;;;;;5035362;28;20037;-64
2021/07/13 00:23:56;;;;;;;6.25;4.82;;;19.20;99.90;;;;;;5032454;28;20032;-64
2021/07/13 00:26:21;;;;;;;11.68;4.78;;;19.20;99.90;;;;;;5050401;28;20040;-65
2021/07/13 00:28:47;;;;;;;6.72;5.47;;;19.20;99.90;;;;;;5050121;28;20021;-65
2021/07/13 00:31:13;;;;;;;10.80;5.57;;;19.20;99.90;;;;;;5049649;28;20029;-65
2021/07/13 00:33:38;;;;;;;10.02;5.68;;;19.20;99.90;;;;;;5049142;28;20494;-65
2021/07/13 00:36:04;;;;;;;6.38;4.80;;;19.20;99.90;;;;;;5050285;28;20378;-64
2021/07/13 00:38:30;;;;;;;9.05;5.22;;;19.20;99.90;;;;;;5049990;28;20052;-65
2021/07/13 00:40:55;;;;;;;10.75;5.40;;;19.10;99.90;;;;;;5049605;28;20036;-64
2021/07/13 00:43:21;;;;;;;8.13;5.70;;;19.10;99.90;;;;;;5050202;28;20228;-64
2021/07/13 00:45:46;;;;;;;8.75;5.88;;;19.10;99.90;;;;;;5031671;28;20490;-64
2021/07/13 00:48:13;;;;;;;7.10;6.40;;;19.10;99.90;;;;;;5050032;28;20478;-64
2021/07/13 00:50:40;;;;;;;9.93;6.28;;;19.00;99.90;;;;;;5044356;28;20029;-64
2021/07/13 00:53:06;;;;;;;10.10;7.13;;;19.00;99.90;;;;;;5033994;28;20025;-65
2021/07/13 00:55:32;;;;;;;6.80;6.10;;;19.00;99.90;;;;;;5034012;28;20117;-64
2021/07/13 00:58:04;;;;;;;8.75;7.13;;;18.90;99.90;;;;;;5033365;28;20061;-64
2021/07/13 01:00:31;;;;;;;11.43;6.97;;;18.90;99.90;;;;;;5042809;28;20037;-65
2021/07/13 01:03:03;;;;;;;8.15;6.25;;;19.00;99.90;;;;;;5033875;28;20036;-65
2021/07/13 01:05:37;;;;;;;10.55;7.03;;;19.00;99.90;;;;;;5033643;28;20030;-64
2021/07/13 01:08:02;;;;;;;;;;;18.90;99.90;;;;;;5033911;28;20493;-64
2021/07/13 01:10:54;;;;;;;8.98;5.70;;;18.90;99.90;;;;;;5033846;28;20013;-65
2021/07/13 01:13:49;;;;;;;8.93;6.35;;;18.90;99.90;;;;;;5002978;28;20412;-64
2021/07/13 01:16:27;;;;;;;8.70;6.78;;;18.90;99.90;;;;;;5047409;28;20040;-64
2021/07/13 01:19:25;;;;;;;12.07;6.75;;;18.80;99.90;;;;;;5033157;28;20038;-64
2021/07/13 01:21:55;;;;;;;19.42;7.07;;;18.80;99.90;;;;;;5033444;28;20033;-64
2021/07/13 01:24:31;;;;;;;8.65;7.13;;;18.70;99.90;;;;;;5033411;28;20033;-64
2021/07/13 01:27:11;;;;;;;11.93;7.55;;;18.70;99.90;;;;;;5036623;28;20029;-65
2021/07/13 01:29:39;;;;;;;11.90;8.80;;;18.60;99.90;;;;;;5051979;28;20020;-65
2021/07/13 01:32:07;;;;;;;9.75;7.60;;;18.60;99.90;;;;;;5033259;28;20025;-65
2021/07/13 01:34:40;;;;;;;20.38;8.43;;;18.60;99.90;;;;;;5033214;28;20033;-65
2021/07/13 01:37:08;;;;;;;11.73;8.68;;;18.60;99.90;;;;;;5033208;28;20513;-64
2021/07/13 01:39:35;;;;;;;10.60;8.32;;;18.70;99.90;;;;;;5032988;28;20033;-65
2021/07/13 01:42:08;;;;;;;9.15;8.02;;;18.60;99.90;;;;;;5052397;28;20050;-64
2021/07/13 01:44:36;;;;;;;11.53;8.27;;;18.60;99.90;;;;;;5051523;28;20393;-64
2021/07/13 01:47:03;;;;;;;11.63;8.45;;;18.60;99.90;;;;;;5052842;28;20283;-64
2021/07/13 01:49:29;;;;;;;9.65;8.65;;;18.70;99.90;;;;;;5052585;28;20121;-65
2021/07/13 01:51:58;;;;;;;11.52;9.13;;;18.70;99.90;;;;;;5051652;28;20132;-64
2021/07/13 01:54:27;;;;;;;14.00;8.48;;;18.60;99.90;;;;;;5052042;28;20033;-64
2021/07/13 01:56:55;;;;;;;10.02;8.90;;;18.60;99.90;;;;;;5052335;28;20783;-64
2021/07/13 01:59:23;;;;;;;17.58;10.45;;;18.60;99.90;;;;;;5052283;28;20497;-64
2021/07/13 02:01:49;;;;;;;12.23;7.97;;;18.60;99.90;;;;;;5032248;28;20513;-64
2021/07/13 02:04:16;;;;;;;12.02;9.50;;;18.60;99.90;;;;;;5032665;28;20441;-65
2021/07/13 02:06:42;;;;;;;11.82;8.50;;;18.60;99.90;;;;;;5032624;28;20040;-64
2021/07/13 02:09:10;;;;;;;15.70;9.18;;;18.60;99.90;;;;;;5032347;28;20084;-64
2021/07/13 02:11:37;;;;;;;14.63;9.48;;;18.60;99.90;;;;;;5049266;28;20031;-64
2021/07/13 02:14:03;;;;;;;13.95;8.77;;;18.60;99.90;;;;;;5052490;28;20033;-64
2021/07/13 02:16:29;;;;;;;10.38;8.95;;;18.60;99.90;;;;;;5049203;28;20033;-64
2021/07/13 02:18:55;;;;;;;11.40;8.05;;;18.60;99.90;;;;;;5032202;28;20116;-63
2021/07/13 02:21:21;;;;;;;11.55;9.07;;;18.60;99.90;;;;;;5032300;28;20030;-65
2021/07/13 02:23:47;;;;;;;13.23;8.40;;;18.60;99.90;;;;;;5050003;28;20037;-64
2021/07/13 02:26:20;;;;;;;12.98;10.27;;;18.60;99.90;;;;;;5051704;28;20478;-64
2021/07/13 02:28:49;;;;;;;19.55;11.52;;;18.50;99.90;;;;;;5051840;28;20021;-64
2021/07/13 02:31:27;;;;;;;19.92;13.50;;;18.50;99.90;;;;;;5051386;28;20443;-64
2021/07/13 02:34:24;;;;;;;14.25;11.95;;;18.50;99.90;;;;;;5052104;28;20029;-64
2021/07/13 02:36:51;;;;;;;15.73;12.55;;;18.50;99.90;;;;;;5047104;28;20049;-63
2021/07/13 02:39:20;;;;;;;17.30;14.45;;;18.50;99.90;;;;;;5051242;28;20033;-64
2021/07/13 02:41:48;;;;;;;19.83;15.15;;;18.50;99.90;;;;;;5051917;28;20114;-65
2021/07/13 02:44:15;;;;;;;19.75;15.13;;;18.40;99.90;;;;;;5051733;28;20033;-64
2021/07/13 02:46:43;;;;;;;18.00;14.02;;;18.40;99.90;;;;;;5031915;28;20032;-65
2021/07/13 02:49:14;;;;;;;24.33;16.08;;;18.40;99.90;;;;;;5051486;28;20474;-64
2021/07/13 02:51:40;;;;;;;22.15;15.45;;;18.40;99.90;;;;;;5051808;28;20557;-65
2021/07/13 02:54:08;;;;;;;20.20;16.10;;;18.40;99.90;;;;;;5051616;28;20032;-64
2021/07/13 02:56:37;;;;;;;20.67;17.88;;;18.30;99.90;;;;;;5050901;28;20096;-64
2021/07/13 02:59:04;;;;;;;19.77;17.27;;;18.30;99.90;;;;;;5051303;28;20021;-65
2021/07/13 03:01:31;;;;;;;23.88;18.13;;;18.30;99.90;;;;;;5016928;28;20041;-65
2021/07/13 03:03:57;;;;;;;23.52;17.40;;;18.30;99.90;;;;;;5031770;28;20480;-64
2021/07/13 03:06:23;;;;;;;21.98;18.60;;;18.30;99.90;;;;;;5031304;28;20422;-65
2021/07/13 03:08:49;;;;;;;24.42;17.63;;;18.30;99.90;;;;;;5031324;28;20025;-65
2021/07/13 03:11:15;;;;;;;25.67;18.23;;;18.30;99.90;;;;;;5031422;28;20037;-64
2021/07/13 03:13:41;;;;;;;26.45;17.98;;;18.30;99.90;;;;;;5031055;28;20034;-65
2021/07/13 03:16:10;;;;;;;27.30;19.85;;;18.30;99.90;;;;;;5049038;28;20029;-64
2021/07/13 03:18:35;;;;;;;27.40;18.48;;;18.30;99.90;;;;;;5031270;28;20079;-65
2021/07/13 03:21:04;;;;;;;24.80;17.90;;;18.30;99.90;;;;;;5031280;28;20030;-64
2021/07/13 03:23:32;;;;;;;25.98;18.42;;;18.30;99.90;;;;;;5012795;28;20040;-64
2021/07/13 03:25:59;;;;;;;19.17;16.23;;;18.30;99.90;;;;;;5031080;28;20091;-64
2021/07/13 03:28:27;;;;;;;23.75;17.35;;;18.30;99.90;;;;;;5030875;28;20031;-64
2021/07/13 03:30:54;;;;;;;22.38;17.27;;;18.30;99.90;;;;;;5023768;28;20025;-64
2021/07/13 03:33:21;;;;;;;20.73;15.93;;;18.30;99.90;;;;;;5050540;28;20036;-64
2021/07/13 03:35:48;;;;;;;24.65;17.40;;;18.30;99.90;;;;;;5051099;28;20050;-64
2021/07/13 03:38:16;;;;;;;20.52;16.33;;;18.30;99.90;;;;;;5050731;28;20115;-65
2021/07/13 03:40:42;;;;;;;22.30;17.35;;;18.20;99.90;;;;;;5050839;28;20389;-64
2021/07/13 03:43:08;;;;;;;23.42;17.42;;;18.20;99.90;;;;;;5050821;28;20067;-65
2021/07/13 03:45:34;;;;;;;21.08;16.30;;;18.20;99.90;;;;;;5040902;28;20084;-63
2021/07/13 03:48:00;;;;;;;23.98;16.92;;;18.20;99.90;;;;;;5042605;28;20044;-64
2021/07/13 03:50:33;;;;;;;20.80;16.63;;;18.20;99.90;;;;;;5050875;28;20098;-65
2021/07/13 03:52:59;;;;;;;24.50;17.45;;;18.10;99.90;;;;;;5050218;28;20054;-64
2021/07/13 03:55:25;;;;;;;19.33;16.05;;;18.10;99.90;;;;;;5050746;28;20036;-64
2021/07/13 03:57:52;;;;;;;27.20;17.83;;;18.10;99.90;;;;;;5050387;28;20029;-64
2021/07/13 04:00:20;;;;;;;25.17;18.60;;;18.10;99.90;;;;;;5047047;28;20048;-64
2021/07/13 04:02:45;;;;;;;22.92;17.92;;;18.10;99.90;;;;;;5049998;28;20401;-64
2021/07/13 04:05:13;;;;;;;34.50;18.83;;;18.10;99.90;;;;;;5032776;28;20025;-64
2021/07/13 04:07:39;;;;;;;27.35;16.80;;;18.10;99.90;;;;;;5032528;28;20745;-65
2021/07/13 04:10:07;;;;;;;25.17;18.30;;;18.10;99.90;;;;;;5032750;28;20071;-65
2021/07/13 04:12:32;;;;;;;24.70;18.92;;;18.20;99.90;;;;;;5050518;28;20083;-64
2021/07/13 04:14:58;;;;;;;24.00;17.42;;;18.20;99.90;;;;;;5049847;28;20029;-64
2021/07/13 04:17:24;;;;;;;21.40;16.90;;;18.10;99.90;;;;;;5040398;28;20632;-63
2021/07/13 04:19:49;;;;;;;19.80;17.02;;;18.10;99.90;;;;;;5030767;28;20022;-64
2021/07/13 04:22:15;;;;;;;26.63;17.90;;;18.20;99.90;;;;;;5030539;28;20037;-64
2021/07/13 04:24:40;;;;;;;27.95;19.45;;;18.10;99.90;;;;;;5030879;28;20033;-64
2021/07/13 04:27:06;;;;;;;24.20;18.80;;;18.10;99.90;;;;;;5034472;28;20037;-67
2021/07/13 04:29:31;;;;;;;20.02;16.60;;;18.10;99.90;;;;;;5037949;28;20447;-63
2021/07/13 04:31:57;;;;;;;28.02;18.55;;;18.10;99.90;;;;;;5034511;28;20399;-64
2021/07/13 04:34:22;;;;;;;25.52;19.15;;;18.10;99.90;;;;;;5034374;28;20422;-64
2021/07/13 04:36:48;;;;;;;27.38;18.90;;;18.10;99.90;;;;;;5033725;28;20364;-65
2021/07/13 04:39:13;;;;;;;26.92;19.20;;;18.10;99.90;;;;;;5033846;28;20033;-65
2021/07/13 04:41:40;;;;;;;26.17;20.90;;;18.10;99.90;;;;;;5035270;28;20157;-64
2021/07/13 04:44:06;;;;;;;28.25;18.40;;;18.10;99.90;;;;;;5054059;28;20029;-65
2021/07/13 04:46:32;;;;;;;24.98;18.00;;;18.10;99.90;;;;;;5053323;28;20031;-65
2021/07/13 04:48:58;;;;;;;28.55;18.77;;;18.10;99.90;;;;;;5053762;28;20155;-65
2021/07/13 04:51:24;;;;;;;27.08;18.83;;;18.10;99.90;;;;;;5053982;28;20083;-64
2021/07/13 04:53:50;;;;;;;28.55;21.55;;;18.10;99.90;;;;;;5053779;28;20021;-64
2021/07/13 04:56:17;;;;;;;26.10;19.30;;;18.10;99.90;;;;;;5053001;28;20564;-65
2021/07/13 04:58:42;;;;;;;29.25;20.05;;;18.00;99.90;;;;;;5052549;28;20033;-64
2021/07/13 05:01:08;;;;;;;23.10;18.30;;;18.00;99.90;;;;;;5052923;28;20500;-64
2021/07/13 05:03:33;;;;;;;27.30;19.30;;;18.00;99.90;;;;;;5053746;28;20028;-65
2021/07/13 05:05:59;;;;;;;21.50;16.05;;;18.00;99.90;;;;;;5140136;22;20091;-60
2021/07/13 05:08:24;;;;;;;19.02;14.15;;;18.00;99.90;;;;;;5072418;28;20063;-61
2021/07/13 05:10:50;;;;;;;19.25;13.63;;;18.00;99.90;;;;;;5071795;28;20078;-62
2021/07/13 05:13:16;;;;;;;18.25;12.57;;;18.00;99.90;;;;;;5055407;28;20027;-61
2021/07/13 05:15:42;;;;;;;16.48;12.70;;;18.00;99.90;;;;;;5072301;28;20068;-62
2021/07/13 05:18:09;;;;;;;18.75;13.20;;;18.00;99.90;;;;;;5072866;28;20528;-61
2021/07/13 05:20:35;;;;;;;19.58;12.70;;;17.90;99.90;;;;;;5073166;28;20024;-61
2021/07/13 05:23:06;;;;;;;17.33;12.88;;;17.90;99.90;;;;;;5073308;28;20127;-60
2021/07/13 05:25:33;;;;;;;18.48;13.65;;;17.90;99.90;;;;;;5073116;28;20024;-62
2021/07/13 05:27:59;;;;;;;19.02;14.85;;;17.90;99.90;;;;;;5071639;28;20025;-62
2021/07/13 05:30:25;;;;;;;20.88;14.90;;;17.90;99.90;;;;;;5072254;28;20024;-62
2021/07/13 05:32:52;;;;;;;25.35;15.00;;;17.90;99.90;;;;;;5055186;28;20024;-62
2021/07/13 05:35:18;;;;;;;17.10;14.05;;;18.00;99.90;;;;;;5054760;28;20035;-60
2021/07/13 05:37:43;;;;;;;15.90;12.10;;;17.90;99.90;;;;;;5071526;28;20029;-61
2021/07/13 05:40:09;;;;;;;17.58;13.95;;;17.90;99.90;;;;;;5072804;28;20028;-60
2021/07/13 05:42:35;;;;;;;17.73;14.15;;;18.00;99.90;;;;;;5071892;28;20115;-60
2021/07/13 05:45:02;;;;;;;17.38;13.23;;;17.90;99.90;;;;;;5072062;28;20158;-61
2021/07/13 05:47:28;;;;;;;16.58;11.93;;;18.00;99.90;;;;;;5054314;28;20024;-62
2021/07/13 05:49:54;;;;;;;16.52;12.98;;;18.00;99.90;;;;;;5072649;28;20028;-61
2021/07/13 05:52:20;;;;;;;17.17;12.52;;;18.00;99.90;;;;;;5072652;28;20099;-62
2021/07/13 05:54:45;;;;;;;14.02;11.00;;;18.00;99.90;;;;;;5072515;28;20185;-61
2021/07/13 05:57:11;;;;;;;14.57;11.25;;;18.00;99.90;;;;;;5072400;28;20557;-62
2021/07/13 05:59:36;;;;;;;16.90;11.85;;;18.10;99.90;;;;;;5070835;28;20045;-62
2021/07/13 06:02:02;;;;;;;14.52;11.30;;;18.10;99.90;;;;;;5071837;28;20044;-62
2021/07/13 06:04:28;;;;;;;13.70;11.52;;;18.10;99.90;;;;;;5072378;28;20032;-62
2021/07/13 06:06:54;;;;;;;19.15;11.13;;;18.00;99.90;;;;;;5072047;28;20044;-61
2021/07/13 06:09:20;;;;;;;14.82;11.70;;;18.00;99.90;;;;;;5054043;28;20024;-62
2021/07/13 06:11:45;;;;;;;14.55;12.07;;;18.00;99.90;;;;;;5072272;28;20033;-60
2021/07/13 06:14:11;;;;;;;21.35;13.15;;;18.00;99.90;;;;;;5071505;28;20047;-61
2021/07/13 06:16:37;;;;;;;14.85;11.82;;;18.00;99.90;;;;;;5071209;28;20120;-62
2021/07/13 06:19:02;;;;;;;14.30;11.50;;;18.00;99.90;;;;;;5071879;28;20027;-62
2021/07/13 06:21:28;;;;;;;13.00;10.93;;;18.00;99.90;;;;;;5054299;28;20032;-62
2021/07/13 06:23:55;;;;;;;11.65;9.93;;;18.00;99.90;;;;;;5072185;28;20123;-62
2021/07/13 06:26:21;;;;;;;14.30;10.60;;;18.10;99.90;;;;;;5071557;28;20493;-61
2021/07/13 06:28:47;;;;;;;13.27;10.00;;;18.10;99.90;;;;;;5070869;28;20055;-62
2021/07/13 06:31:12;;;;;;;11.90;9.57;;;18.10;99.90;;;;;;5070918;28;20039;-62
2021/07/13 06:33:39;;;;;;;10.98;9.70;;;18.10;99.90;;;;;;5071793;28;20031;-61
2021/07/13 06:36:05;;;;;;;10.80;9.57;;;18.10;99.90;;;;;;5071619;28;20017;-62
2021/07/13 06:38:31;;;;;;;12.65;10.48;;;18.20;99.90;;;;;;5071542;28;20363;-62
2021/07/13 06:40:56;;;;;;;10.98;9.10;;;18.20;99.90;;;;;;5071604;28;20071;-62
2021/07/13 06:43:22;;;;;;;11.70;8.90;;;18.20;99.90;;;;;;5071705;28;20037;-62
2021/07/13 06:45:47;;;;;;;14.40;8.98;;;18.20;99.90;;;;;;5070104;28;20082;-62
2021/07/13 06:48:13;;;;;;;10.57;8.75;;;18.20;99.90;;;;;;5070947;28;20040;-61
2021/07/13 06:50:38;;;;;;;9.45;7.82;;;18.30;99.90;;;;;;5071379;28;20032;-62
2021/07/13 06:53:04;;;;;;;20.45;9.48;;;18.30;99.90;;;;;;5071506;28;20021;-62
2021/07/13 06:55:30;;;;;;;13.65;9.27;;;18.40;99.90;;;;;;5071122;28;20031;-61
2021/07/13 06:57:55;;;;;;;11.40;8.07;;;18.40;99.90;;;;;;5070391;28;20119;-61
2021/07/13 07:00:21;;;;;;;14.13;9.32;;;18.50;99.90;;;;;;5070382;28;20115;-62
2021/07/13 07:02:47;;;;;;;13.40;9.43;;;18.40;99.90;;;;;;5054649;28;20108;-62
2021/07/13 07:05:14;;;;;;;9.90;8.90;;;18.40;99.90;;;;;;5050978;28;20040;-61
2021/07/13 07:07:50;;;;;;;10.35;8.85;;;18.40;99.90;;;;;;5050921;28;20031;-62
2021/07/13 07:10:17;;;;;;;11.43;9.75;;;18.40;99.90;;;;;;5051053;28;20025;-62
2021/07/13 07:12:44;;;;;;;13.30;9.80;;;18.50;99.90;;;;;;5051179;28;20017;-61
2021/07/13 07:15:10;;;;;;;10.48;9.10;;;18.50;99.90;;;;;;5059712;28;20017;-62
2021/07/13 07:17:43;;;;;;;11.95;9.77;;;18.60;99.90;;;;;;5070942;28;20424;-62
2021/07/13 07:20:10;;;;;;;10.55;9.23;;;18.80;99.90;;;;;;5071011;28;20064;-62
2021/07/13 07:22:35;;;;;;;11.00;8.60;;;18.90;99.90;;;;;;5053210;28;20394;-62
2021/07/13 07:25:01;;;;;;;9.80;8.73;;;19.00;99.90;;;;;;5070924;28;20029;-62
2021/07/13 07:27:26;;;;;;;8.60;7.70;;;19.10;99.90;;;;;;5070620;28;20486;-62
2021/07/13 07:29:52;;;;;;;10.05;6.50;;;19.20;99.90;;;;;;5069532;28;20370;-62
2021/07/13 07:32:17;;;;;;;9.85;8.27;;;19.20;99.90;;;;;;5070961;28;20101;-62
2021/07/13 07:34:43;;;;;;;8.77;7.88;;;19.40;99.90;;;;;;5070741;28;20032;-61
2021/07/13 07:37:08;;;;;;;10.68;8.48;;;19.30;99.90;;;;;;5070774;28;20062;-61
2021/07/13 07:39:34;;;;;;;7.43;6.57;;;19.30;99.90;;;;;;5070533;28;20032;-63
2021/07/13 07:42:00;;;;;;;9.93;8.02;;;19.40;99.90;;;;;;5070830;28;20390;-62
2021/07/13 07:44:25;;;;;;;10.10;7.25;;;19.40;99.90;;;;;;5051999;28;20493;-62
2021/07/13 07:46:51;;;;;;;8.48;7.32;;;19.40;99.90;;;;;;5069949;28;20089;-62
2021/07/13 07:49:17;;;;;;;9.32;7.47;;;19.30;99.90;;;;;;5070367;28;20449;-61
2021/07/13 07:51:42;;;;;;;8.82;7.25;;;19.40;99.90;;;;;;5070575;28;20021;-61
2021/07/13 07:54:10;;;;;;;9.02;7.53;;;19.40;99.90;;;;;;5070704;28;20081;-62
2021/07/13 07:56:35;;;;;;;11.95;6.25;;;19.40;99.90;;;;;;5070480;28;20136;-62
2021/07/13 07:59:02;;;;;;;12.43;6.68;;;19.50;99.90;;;;;;5070523;28;20521;-61
2021/07/13 08:01:28;;;;;;;9.20;6.43;;;19.60;99.90;;;;;;5064719;28;20052;-62
2021/07/13 08:03:54;;;;;;;8.18;5.93;;;19.80;99.90;;;;;;5067801;28;20064;-61
2021/07/13 08:06:20;;;;;;;11.25;6.43;;;19.90;99.90;;;;;;5074192;28;20485;-62
2021/07/13 08:08:46;;;;;;;6.10;5.50;;;19.90;99.90;;;;;;5074363;28;20036;-62
2021/07/13 08:11:11;;;;;;;6.45;5.25;;;20.00;99.90;;;;;;5073725;28;20401;-62
2021/07/13 08:13:37;;;;;;;10.35;5.25;;;20.00;99.90;;;;;;5073943;28;20056;-62
2021/07/13 08:16:03;;;;;;;7.40;5.35;;;20.20;99.90;;;;;;5073665;28;20402;-62
2021/07/13 08:18:28;;;;;;;8.75;5.85;;;20.10;99.90;;;;;;5074154;28;20443;-62
2021/07/13 08:20:54;;;;;;;9.65;5.75;;;20.30;99.90;;;;;;5074276;28;20033;-61
2021/07/13 08:23:19;;;;;;;8.90;6.22;;;20.30;99.90;;;;;;5074470;28;20033;-62
2021/07/13 08:25:45;;;;;;;8.00;5.75;;;20.30;99.90;;;;;;5073325;28;20032;-62
2021/07/13 08:28:11;;;;;;;6.70;5.53;;;20.50;99.90;;;;;;5073134;28;20028;-62
2021/07/13 08:30:36;;;;;;;10.27;5.28;;;20.90;99.90;;;;;;5073623;28;20029;-62
2021/07/13 08:33:02;;;;;;;6.45;4.57;;;21.10;99.90;;;;;;5074543;28;20520;-62
2021/07/13 08:35:27;;;;;;;6.65;5.07;;;21.20;99.90;;;;;;5074157;28;20028;-61
2021/07/13 08:37:53;;;;;;;6.05;4.60;;;21.50;99.90;;;;;;5074128;28;20021;-62
2021/07/13 08:40:19;;;;;;;6.55;4.78;;;21.80;99.90;;;;;;5073986;28;20443;-63
2021/07/13 08:42:45;;;;;;;9.50;5.18;;;21.90;99.90;;;;;;5073204;28;20028;-63
2021/07/13 08:45:13;;;;;;;6.10;4.38;;;21.90;99.90;;;;;;5072602;28;20029;-64
2021/07/13 08:47:40;;;;;;;7.60;4.90;;;22.20;99.90;;;;;;5073368;28;20127;-63
2021/07/13 08:50:08;;;;;;;8.07;4.95;;;22.30;99.90;;;;;;5073650;28;20381;-62
2021/07/13 08:52:34;;;;;;;7.72;5.00;;;22.50;99.90;;;;;;5073674;28;20017;-62
2021/07/13 08:55:00;;;;;;;9.10;4.35;;;22.80;99.90;;;;;;5072730;28;20066;-62
2021/07/13 08:57:26;;;;;;;4.88;4.38;;;23.00;99.90;;;;;;5073446;28;20074;-63
2021/07/13 08:59:51;;;;;;;5.28;4.38;;;23.20;99.90;;;;;;5073003;28;20448;-62
2021/07/13 09:02:17;;;;;;;6.70;4.32;;;23.00;99.90;;;;;;5065721;28;20040;-62
2021/07/13 09:04:43;;;;;;;5.40;3.95;;;22.70;99.90;;;;;;5070559;28;20033;-62
2021/07/13 09:07:09;;;;;;;10.85;4.65;;;22.80;99.90;;;;;;5072278;28;20134;-62
2021/07/13 09:09:37;;;;;;;4.70;4.20;;;22.50;99.90;;;;;;5071336;28;20374;-61
2021/07/13 09:12:22;;;;;;;5.70;4.85;;;22.40;99.90;;;;;;5070589;28;20028;-61
2021/07/13 09:15:01;;;;;;;6.65;4.28;;;22.10;99.90;;;;;;5071637;28;20027;-62
2021/07/13 09:17:43;;;;;;;5.97;4.60;;;21.90;99.90;;;;;;5071941;28;20036;-62
2021/07/13 09:20:14;;;;;;;8.60;5.47;;;21.80;99.90;;;;;;5072185;28;20027;-62
2021/07/13 09:23:06;;;;;;;6.65;5.45;;;21.60;99.90;;;;;;5071603;28;20020;-62
2021/07/13 09:25:35;;;;;;;12.65;5.50;;;21.40;99.90;;;;;;5048481;28;20064;-62
2021/07/13 09:28:04;;;;;;;9.48;6.05;;;21.20;99.90;;;;;;5051778;28;20017;-62
2021/07/13 09:30:30;;;;;;;7.32;5.90;;;21.10;99.90;;;;;;5059219;28;20385;-61
2021/07/13 09:33:14;;;;;;;8.90;6.18;;;21.10;99.90;;;;;;5072127;28;20020;-62
2021/07/13 09:35:41;;;;;;;9.63;5.72;;;21.00;99.90;;;;;;5071963;28;20035;-63
2021/07/13 09:38:06;;;;;;;8.13;6.70;;;21.00;99.90;;;;;;5070790;28;20073;-61
2021/07/13 09:40:37;;;;;;;10.45;6.88;;;21.00;99.90;;;;;;5071121;28;20028;-62
2021/07/13 09:43:03;;;;;;;11.43;6.70;;;21.00;99.90;;;;;;5072085;28;20051;-62
2021/07/13 09:45:33;;;;;;;8.30;6.00;;;21.20;99.90;;;;;;5052667;28;20032;-62
2021/07/13 09:48:08;;;;;;;8.60;5.78;;;21.30;99.90;;;;;;5071583;28;20452;-61
2021/07/13 09:50:43;;;;;;;6.47;5.43;;;21.30;99.90;;;;;;5071597;28;20108;-62
2021/07/13 09:53:15;;;;;;;5.95;4.35;;;21.40;99.90;;;;;;5070875;28;20032;-62
2021/07/13 09:55:42;;;;;;;8.10;4.90;;;21.50;99.90;;;;;;5071691;28;20103;-62
2021/07/13 09:58:12;;;;;;;6.45;5.30;;;21.70;99.90;;;;;;5071304;28;20490;-63
2021/07/13 10:00:40;;;;;;;6.28;4.53;;;22.00;99.90;;;;;;5070572;28;20036;-63
2021/07/13 10:03:14;;;;;;;6.90;5.55;;;22.20;99.90;;;;;;5071370;28;20024;-62
2021/07/13 10:05:40;;;;;;;8.03;5.40;;;22.50;99.90;;;;;;5035041;28;1039217;-63
2021/07/13 10:08:06;;;;;;;6.45;4.78;;;22.40;99.90;;;;;;5070504;28;20274;-63
2021/07/13 10:10:35;;;;;;;8.07;5.25;;;22.50;99.90;;;;;;5071531;28;20114;-62
2021/07/13 10:13:01;;;;;;;7.20;5.22;;;22.60;99.90;;;;;;5072386;28;20027;-62
2021/07/13 10:15:28;;;;;;;8.15;4.95;;;22.60;99.90;;;;;;5071318;28;20029;-62
2021/07/13 10:17:54;;;;;;;7.00;4.15;;;22.50;99.90;;;;;;5071830;28;20021;-62
2021/07/13 10:20:22;;;;;;;8.07;4.95;;;22.50;99.90;;;;;;5071415;28;20027;-62
2021/07/13 10:22:49;;;;;;;5.05;4.53;;;22.50;99.90;;;;;;5071408;28;20024;-62
2021/07/13 10:25:15;;;;;;;9.55;5.40;;;22.50;99.90;;;;;;5071150;28;20024;-62
2021/07/13 10:27:47;;;;;;;6.15;4.25;;;22.60;99.90;;;;;;5071629;28;20244;-63
2021/07/13 10:30:16;;;;;;;9.02;4.78;;;22.80;99.90;;;;;;5070816;28;20486;-63
2021/07/13 10:32:43;;;;;;;8.75;5.25;;;23.00;99.90;;;;;;5054016;28;20397;-62
2021/07/13 10:35:24;;;;;;;7.97;4.07;;;23.20;99.90;;;;;;5071721;28;20035;-63
2021/07/13 10:37:55;;;;;;;5.35;4.28;;;23.50;99.90;;;;;;5071609;28;20031;-63
2021/07/13 10:40:29;;;;;;;8.23;3.90;;;23.90;99.90;;;;;;5071079;28;20029;-62
2021/07/13 10:42:57;;;;;;;7.13;4.28;;;23.60;99.90;;;;;;5071559;28;20025;-62
2021/07/13 10:45:29;;;;;;;6.25;4.38;;;23.50;99.90;;;;;;5052213;28;20024;-62
2021/07/13 10:48:03;;;;;;;5.60;4.35;;;23.50;99.90;;;;;;5071408;28;20020;-61
2021/07/13 10:50:32;;;;;;;7.50;3.97;;;23.40;99.90;;;;;;5071602;28;20029;-61
2021/07/13 10:53:02;;;;;;;4.55;4.10;;;23.20;99.90;;;;;;5071595;28;20016;-60
2021/07/13 10:55:30;;;;;;;5.65;3.50;;;23.10;99.90;;;;;;5071359;28;20026;-63
2021/07/13 10:58:14;;;;;;;6.90;3.88;;;23.00;99.90;;;;;;5071566;28;20470;-62
2021/07/13 11:00:56;;;;;;;6.75;3.80;;;23.00;99.90;;;;;;5069968;28;20024;-61
2021/07/13 11:03:31;;;;;;;6.20;3.05;;;23.10;99.90;;;;;;5071527;28;20465;-62
2021/07/13 11:06:06;;;;;;;4.18;3.78;;;23.10;99.90;;;;;;5070965;28;20111;-62
2021/07/13 11:08:41;;;;;;;5.03;3.40;;;22.80;99.90;;;;;;5071193;28;20081;-62
2021/07/13 11:11:08;;;;;;;5.90;3.70;;;22.80;99.90;;;;;;5071244;28;20021;-62
2021/07/13 11:13:34;;;;;;;4.90;3.13;;;22.60;99.90;;;;;;5070533;28;20555;-61
2021/07/13 11:16:00;;;;;;;4.47;3.33;;;22.70;99.90;;;;;;5070403;28;20064;-61
2021/07/13 11:18:33;;;;;;;4.55;2.92;;;22.80;99.90;;;;;;5070818;28;20029;-62
2021/07/13 11:21:19;;;;;;;3.47;2.55;;;22.60;99.90;;;;;;5071186;28;20070;-61
2021/07/13 11:23:50;;;;;;;3.67;3.20;;;22.90;99.90;;;;;;5071179;28;20036;-62
2021/07/13 11:26:17;;;;;;;5.72;2.55;;;22.90;99.90;;;;;;5070862;28;20119;-61
2021/07/13 11:28:46;;;;;;;3.38;2.60;;;22.80;99.90;;;;;;5069255;28;20016;-62
2021/07/13 11:31:22;;;;;;;3.75;2.75;;;22.60;99.90;;;;;;5069747;28;20043;-62
2021/07/13 11:33:52;;;;;;;3.65;2.50;;;22.70;99.90;;;;;;5052959;28;20020;-61
2021/07/13 11:36:27;;;;;;;3.67;2.50;;;22.90;99.90;;;;;;5070841;28;20040;-62
2021/07/13 11:38:53;;;;;;;4.25;2.17;;;22.90;99.90;;;;;;5070809;28;20028;-62
2021/07/13 11:41:22;;;;;;;2.75;2.38;;;22.90;99.90;;;;;;5070758;28;20024;-62
2021/07/13 11:43:56;;;;;;;3.35;2.28;;;22.90;99.90;;;;;;5070076;28;20389;-62
2021/07/13 11:46:27;;;;;;;4.20;2.17;;;22.90;99.90;;;;;;5068845;28;20381;-62
2021/07/13 11:48:56;;;;;;;4.25;2.38;;;23.10;99.90;;;;;;5070594;28;20021;-61
2021/07/13 11:51:47;;;;;;;6.22;2.80;;;23.10;99.90;;;;;;5070732;28;20074;-63
2021/07/13 11:54:14;;;;;;;2.97;2.67;;;23.10;99.90;;;;;;5070049;28;20108;-61
2021/07/13 11:56:43;;;;;;;2.97;2.55;;;23.30;99.90;;;;;;5070594;28;20433;-60
2021/07/13 11:59:09;;;;;;;4.18;3.05;;;23.20;99.90;;;;;;5070476;28;20051;-63
2021/07/13 12:01:37;;;;;;;5.38;2.38;;;23.10;99.90;;;;;;5069981;28;20386;-62
2021/07/13 12:04:11;;;;;;;3.30;3.00;;;23.10;99.90;;;;;;5084438;22;20040;-64
2021/07/13 12:06:39;;;;;;;4.28;3.08;;;23.30;99.90;;;;;;5065421;28;20031;-64
2021/07/13 12:09:12;;;;;;;7.80;3.35;;;23.30;99.90;;;;;;5050136;28;20029;-65
2021/07/13 12:11:41;;;;;;;7.80;2.47;;;23.30;99.90;;;;;;5032527;28;20079;-64
2021/07/13 12:14:10;;;;;;;4.93;3.15;;;23.50;99.90;;;;;;5050524;28;20009;-65
2021/07/13 12:16:36;;;;;;;3.70;2.75;;;23.50;99.90;;;;;;5046140;28;20025;-64
2021/07/13 12:19:09;;;;;;;4.07;2.75;;;23.60;99.90;;;;;;5030457;28;20028;-64
2021/07/13 12:21:59;;;;;;;5.32;2.85;;;23.60;99.90;;;;;;5030447;28;20102;-65
2021/07/13 12:24:36;;;;;;;4.63;3.20;;;23.80;99.90;;;;;;5030591;28;20440;-65
2021/07/13 12:27:05;;;;;;;3.72;3.25;;;23.40;99.90;;;;;;5030518;28;20064;-63
2021/07/13 12:29:55;;;;;;;4.65;3.03;;;23.20;99.90;;;;;;5033992;28;20020;-63
2021/07/13 12:32:25;;;;;;;3.95;3.30;;;23.30;99.90;;;;;;5030575;28;20017;-63
2021/07/13 12:34:52;;;;;;;5.75;3.00;;;23.20;99.90;;;;;;5030337;28;20021;-64
2021/07/13 12:37:22;;;;;;;5.93;3.47;;;23.20;99.90;;;;;;5030409;28;20574;-64
2021/07/13 12:39:49;;;;;;;5.20;3.55;;;23.00;99.90;;;;;;5030455;28;20017;-64
2021/07/13 12:42:25;;;;;;;4.55;3.60;;;22.80;99.90;;;;;;5030229;28;20521;-64
2021/07/13 12:44:55;;;;;;;5.43;3.90;;;22.70;99.90;;;;;;5031767;28;20501;-64